createdAt,value
2022-10-30T00:01:29.165Z,7.50
2022-10-30T00:03:57.432Z,6.13
2022-10-30T00:06:25.438Z,6.10
2022-10-30T00:08:53.430Z,6.80
2022-10-30T00:11:21.712Z,6.33
2022-10-30T00:13:49.977Z,6.30
2022-10-30T00:16:18.070Z,7.10
2022-10-30T00:18:47.603Z,6.80
2022-10-30T00:21:16.970Z,7.10
2022-10-30T00:23:48.750Z,7.27
2022-10-30T00:26:17.461Z,6.50
2022-10-30T00:28:45.565Z,6.60
2022-10-30T00:31:13.610Z,7.40
2022-10-30T00:33:41.730Z,6.57
2022-10-30T00:36:11.291Z,7.17
2022-10-30T00:38:39.442Z,5.90
2022-10-30T00:41:07.719Z,6.33
2022-10-30T00:43:37.561Z,6.03
2022-10-30T00:46:08.809Z,5.67
2022-10-30T00:48:37.373Z,6.63
2022-10-30T00:51:06.737Z,5.77
2022-10-30T00:53:36.413Z,6.37
2022-10-30T00:56:07.450Z,7.10
2022-10-30T00:58:38.999Z,6.30
2022-10-30T01:01:09.572Z,6.87
2022-10-30T01:03:40.792Z,6.17
2022-10-30T01:06:11.326Z,6.67
2022-10-30T01:08:41.079Z,5.67
2022-10-30T01:11:09.997Z,5.73
2022-10-30T01:13:39.168Z,5.90
2022-10-30T01:16:20.677Z,6.07
2022-10-30T01:18:54.774Z,6.30
2022-10-30T01:21:45.094Z,5.70
2022-10-30T01:24:30.192Z,6.03
2022-10-30T01:27:08.501Z,7.00
2022-10-30T01:29:46.097Z,6.53
2022-10-30T01:32:28.313Z,6.00
2022-10-30T01:34:59.765Z,7.03
2022-10-30T01:37:34.227Z,5.97
2022-10-30T01:40:12.710Z,6.60
2022-10-30T01:42:50.372Z,6.73
2022-10-30T01:45:30.805Z,6.07
2022-10-30T01:48:20.836Z,5.70
2022-10-30T01:50:57.806Z,6.47
2022-10-30T01:53:41.554Z,6.10
2022-10-30T01:56:19.532Z,6.10
2022-10-30T01:58:52.556Z,5.80
2022-10-30T02:01:22.685Z,6.33
2022-10-30T02:03:51.532Z,5.97
2022-10-30T02:06:20.380Z,6.27
2022-10-30T02:08:49.306Z,5.67
2022-10-30T02:11:19.411Z,5.80
2022-10-30T02:13:47.507Z,6.53
2022-10-30T02:16:15.707Z,6.03
2022-10-30T02:21:15.978Z,6.20
2022-10-30T02:23:44.825Z,6.03
2022-10-30T02:26:12.879Z,5.87
2022-10-30T02:28:42.900Z,5.77
2022-10-30T02:31:11.031Z,6.53
2022-10-30T02:33:45.463Z,5.80
2022-10-30T02:36:16.178Z,6.57
2022-10-30T02:38:44.238Z,6.40
2022-10-30T02:41:13.242Z,6.63
2022-10-30T02:43:41.463Z,6.27
2022-10-30T02:46:10.049Z,6.23
2022-10-30T02:48:38.690Z,6.37
2022-10-30T02:51:07.111Z,6.00
2022-10-30T02:53:36.510Z,6.33
2022-10-30T02:56:05.391Z,6.50
2022-10-30T02:58:33.569Z,6.63
2022-10-30T03:01:06.877Z,6.20
2022-10-30T03:03:35.842Z,6.43
2022-10-30T03:06:05.229Z,6.70
2022-10-30T03:08:33.404Z,6.27
2022-10-30T03:11:04.139Z,6.43
2022-10-30T03:13:33.307Z,6.27
2022-10-30T03:16:02.626Z,6.27
2022-10-30T03:18:33.190Z,6.37
2022-10-30T03:21:09.231Z,6.13
2022-10-30T03:23:38.404Z,6.33
2022-10-30T03:26:08.747Z,6.10
2022-10-30T03:28:49.497Z,6.27
2022-10-30T03:31:19.298Z,6.43
2022-10-30T03:33:50.469Z,6.83
2022-10-30T03:36:19.490Z,7.13
2022-10-30T03:38:47.626Z,6.50
2022-10-30T03:41:20.707Z,6.93
2022-10-30T03:43:48.700Z,6.47
2022-10-30T03:46:16.783Z,6.53
2022-10-30T03:48:44.789Z,7.10
2022-10-30T03:51:15.171Z,6.80
2022-10-30T03:53:43.344Z,7.70
2022-10-30T03:56:11.696Z,6.20
2022-10-30T03:58:47.710Z,7.20
2022-10-30T04:01:20.044Z,7.03
2022-10-30T04:03:51.959Z,6.20
2022-10-30T04:06:20.260Z,6.57
2022-10-30T04:08:48.428Z,7.13
2022-10-30T04:11:16.655Z,7.07
2022-10-30T04:13:45.303Z,6.57
2022-10-30T04:16:15.481Z,7.00
2022-10-30T04:18:44.136Z,7.13
2022-10-30T04:21:13.189Z,6.60
2022-10-30T04:23:41.531Z,6.50
2022-10-30T04:26:10.659Z,7.03
2022-10-30T04:28:41.143Z,7.57
2022-10-30T04:31:09.876Z,6.73
2022-10-30T04:33:39.881Z,6.97
2022-10-30T04:36:09.023Z,6.70
2022-10-30T04:38:37.063Z,7.47
2022-10-30T04:41:07.616Z,7.20
2022-10-30T04:43:49.905Z,6.27
2022-10-30T04:46:19.686Z,7.07
2022-10-30T04:48:49.205Z,6.27
2022-10-30T04:51:17.296Z,7.77
2022-10-30T04:53:45.867Z,7.20
2022-10-30T04:56:16.508Z,8.83
2022-10-30T04:58:44.570Z,7.70
2022-10-30T05:01:12.676Z,7.57
2022-10-30T05:03:40.971Z,7.00
2022-10-30T05:06:21.291Z,7.50
2022-10-30T05:08:49.388Z,6.57
2022-10-30T05:11:38.727Z,7.43
2022-10-30T05:14:07.772Z,7.07
2022-10-30T05:16:36.008Z,7.60
2022-10-30T05:19:05.832Z,7.40
2022-10-30T05:21:36.944Z,7.30
2022-10-30T05:24:06.306Z,7.53
2022-10-30T05:26:41.863Z,7.30
2022-10-30T05:29:10.031Z,7.07
2022-10-30T05:31:39.764Z,6.03
2022-10-30T05:34:16.587Z,7.70
2022-10-30T05:36:47.950Z,7.10
2022-10-30T05:39:16.681Z,8.10
2022-10-30T05:41:48.209Z,7.50
2022-10-30T05:44:28.869Z,7.23
2022-10-30T05:47:06.759Z,7.70
2022-10-30T05:49:36.297Z,7.70
2022-10-30T05:52:09.192Z,7.73
2022-10-30T05:54:38.208Z,7.40
2022-10-30T05:57:14.789Z,7.37
2022-10-30T05:59:43.354Z,8.03
2022-10-30T06:02:11.546Z,6.87
2022-10-30T06:04:40.566Z,7.67
2022-10-30T06:07:14.725Z,7.60
2022-10-30T06:09:42.808Z,7.30
2022-10-30T06:12:43.108Z,7.87
2022-10-30T06:15:20.437Z,7.57
2022-10-30T06:17:48.639Z,7.97
2022-10-30T06:20:24.718Z,8.50
2022-10-30T06:23:12.818Z,7.10
2022-10-30T06:25:54.278Z,7.63
2022-10-30T06:28:24.384Z,7.63
2022-10-30T06:30:55.116Z,7.70
2022-10-30T06:33:23.445Z,7.57
2022-10-30T06:35:53.171Z,7.80
2022-10-30T06:38:23.184Z,8.07
2022-10-30T06:40:52.718Z,7.10
2022-10-30T06:43:28.208Z,7.30
2022-10-30T06:46:19.213Z,7.30
2022-10-30T06:48:47.334Z,7.17
2022-10-30T06:51:16.056Z,7.00
2022-10-30T06:53:46.388Z,8.93
2022-10-30T06:56:33.070Z,8.47
2022-10-30T06:59:13.218Z,7.80
2022-10-30T07:01:47.207Z,6.90
2022-10-30T07:04:18.072Z,8.37
2022-10-30T07:06:46.258Z,8.67
2022-10-30T07:09:15.759Z,8.23
2022-10-30T07:11:45.952Z,8.47
2022-10-30T07:14:36.846Z,8.60
2022-10-30T07:17:23.809Z,8.57
2022-10-30T07:19:57.744Z,8.43
2022-10-30T07:22:26.176Z,8.07
2022-10-30T07:25:02.516Z,7.20
2022-10-30T07:27:53.939Z,8.83
2022-10-30T07:30:42.385Z,7.67
2022-10-30T07:33:27.666Z,8.47
2022-10-30T07:36:04.928Z,7.93
2022-10-30T07:38:53.179Z,8.30
2022-10-30T07:41:50.444Z,7.60
2022-10-30T07:44:41.480Z,7.80
2022-10-30T07:47:19.832Z,7.97
2022-10-30T07:50:23.670Z,7.80
2022-10-30T07:52:52.352Z,7.50
2022-10-30T07:55:25.500Z,6.87
2022-10-30T07:57:55.528Z,8.03
2022-10-30T08:00:59.456Z,7.10
2022-10-30T08:03:34.130Z,7.60
2022-10-30T08:08:43.209Z,6.17
2022-10-30T08:11:28.319Z,6.03
2022-10-30T08:13:59.845Z,5.40
2022-10-30T08:16:28.268Z,5.73
2022-10-30T08:18:56.589Z,6.00
2022-10-30T08:21:26.526Z,5.47
2022-10-30T08:24:00.589Z,5.80
2022-10-30T08:26:31.539Z,5.87
2022-10-30T08:29:01.193Z,7.03
2022-10-30T08:31:31.813Z,5.50
2022-10-30T08:34:03.067Z,5.60
2022-10-30T08:36:42.737Z,5.43
2022-10-30T08:39:13.691Z,5.90
2022-10-30T08:42:00.591Z,5.63
2022-10-30T08:44:44.658Z,6.10
2022-10-30T08:47:31.816Z,5.47
2022-10-30T08:50:00.025Z,5.83
2022-10-30T08:52:30.594Z,5.77
2022-10-30T08:54:58.771Z,4.87
2022-10-30T08:57:28.075Z,5.37
2022-10-30T09:00:00.341Z,5.20
2022-10-30T09:02:47.119Z,5.30
2022-10-30T09:08:43.142Z,5.33
2022-10-30T09:11:15.047Z,5.63
2022-10-30T09:13:43.983Z,6.57
2022-10-30T09:16:14.485Z,6.10
2022-10-30T09:18:42.839Z,5.47
2022-10-30T09:21:11.635Z,4.80
2022-10-30T09:23:45.281Z,5.30
2022-10-30T09:26:32.157Z,4.97
2022-10-30T09:29:20.481Z,4.90
2022-10-30T09:32:10.072Z,4.50
2022-10-30T09:34:55.869Z,4.27
2022-10-30T09:37:41.499Z,4.67
2022-10-30T09:40:31.734Z,4.20
2022-10-30T09:43:19.338Z,4.90
2022-10-30T09:45:56.936Z,5.37
2022-10-30T09:48:50.655Z,5.03
2022-10-30T09:51:32.386Z,5.33
2022-10-30T09:54:06.921Z,4.63
2022-10-30T09:56:45.829Z,5.77
2022-10-30T09:59:22.947Z,5.17
2022-10-30T10:01:54.498Z,4.97
2022-10-30T10:04:27.397Z,5.43
2022-10-30T10:07:29.072Z,4.87
2022-10-30T10:10:19.597Z,4.50
2022-10-30T10:13:01.011Z,5.07
2022-10-30T10:15:37.517Z,4.70
2022-10-30T10:18:08.715Z,4.90
2022-10-30T10:20:42.523Z,4.57
2022-10-30T10:23:19.205Z,5.10
2022-10-30T10:25:54.649Z,4.63
2022-10-30T10:28:48.986Z,4.50
2022-10-30T10:32:20.789Z,4.43
2022-10-30T10:34:56.449Z,4.43
2022-10-30T10:37:32.879Z,4.53
2022-10-30T10:40:20.317Z,4.40
2022-10-30T10:42:56.104Z,4.40
2022-10-30T10:45:33.913Z,4.77
2022-10-30T10:48:42.841Z,4.27
2022-10-30T10:51:15.105Z,4.47
2022-10-30T10:53:47.412Z,5.30
2022-10-30T10:56:15.851Z,4.83
2022-10-30T10:58:49.717Z,4.40
2022-10-30T11:01:21.656Z,4.70
2022-10-30T11:03:56.123Z,4.33
2022-10-30T11:06:27.401Z,5.03
2022-10-30T11:09:02.397Z,4.00
2022-10-30T11:11:30.547Z,4.00
2022-10-30T11:13:58.685Z,4.37
2022-10-30T11:16:29.108Z,4.80
2022-10-30T11:18:59.806Z,4.37
2022-10-30T11:21:29.089Z,4.10
2022-10-30T11:23:58.742Z,4.43
2022-10-30T11:26:33.278Z,4.07
2022-10-30T11:29:06.557Z,5.03
2022-10-30T11:31:37.959Z,4.10
2022-10-30T11:34:25.292Z,4.50
2022-10-30T11:36:54.735Z,4.33
2022-10-30T11:39:25.430Z,4.67
2022-10-30T11:41:58.384Z,4.43
2022-10-30T11:44:30.479Z,3.80
2022-10-30T11:46:58.744Z,4.30
2022-10-30T11:49:41.964Z,4.50
2022-10-30T11:52:14.427Z,4.63
2022-10-30T11:54:48.324Z,4.13
2022-10-30T11:57:22.811Z,4.30
2022-10-30T11:59:52.653Z,3.63
2022-10-30T12:02:23.521Z,3.80
2022-10-30T12:04:52.705Z,4.40
2022-10-30T12:07:27.251Z,4.17
2022-10-30T12:09:59.410Z,4.20
2022-10-30T12:12:31.756Z,4.27
2022-10-30T12:15:12.397Z,3.90
2022-10-30T12:17:41.063Z,4.20
2022-10-30T12:20:15.785Z,3.87
2022-10-30T12:22:44.161Z,3.93
2022-10-30T12:25:23.834Z,4.30
2022-10-30T12:27:52.753Z,3.73
2022-10-30T12:30:22.006Z,3.90
2022-10-30T12:32:53.288Z,4.23
2022-10-30T12:35:37.373Z,4.00
2022-10-30T12:38:08.350Z,3.90
2022-10-30T12:40:42.134Z,4.10
2022-10-30T12:43:17.452Z,3.53
2022-10-30T12:45:47.687Z,4.10
2022-10-30T12:48:18.035Z,4.00
2022-10-30T12:50:55.609Z,4.10
2022-10-30T12:53:29.089Z,4.20
2022-10-30T12:56:01.619Z,3.90
2022-10-30T12:58:34.972Z,4.27
2022-10-30T13:01:08.558Z,3.97
2022-10-30T13:03:39.336Z,4.23
2022-10-30T13:06:13.216Z,4.50
2022-10-30T13:08:48.678Z,3.97
2022-10-30T13:11:29.041Z,4.03
2022-10-30T13:13:59.485Z,4.90
2022-10-30T13:16:29.062Z,3.70
2022-10-30T13:18:58.808Z,4.07
2022-10-30T13:21:31.790Z,4.07
2022-10-30T13:24:03.397Z,4.17
2022-10-30T13:26:36.727Z,3.70
2022-10-30T13:29:15.395Z,4.20
2022-10-30T13:32:01.705Z,3.73
2022-10-30T13:34:40.379Z,3.60
2022-10-30T13:37:13.977Z,3.80
2022-10-30T13:39:44.706Z,4.00
2022-10-30T13:42:41.140Z,3.87
2022-10-30T13:45:25.151Z,3.47
2022-10-30T13:48:01.093Z,3.80
2022-10-30T13:50:39.684Z,3.67
2022-10-30T13:53:12.801Z,3.87
2022-10-30T13:55:42.629Z,3.67
2022-10-30T13:58:17.513Z,3.33
2022-10-30T14:00:55.901Z,3.63
2022-10-30T14:03:32.056Z,3.73
2022-10-30T14:06:06.810Z,3.60
2022-10-30T14:08:39.112Z,4.13
2022-10-30T14:11:07.895Z,4.27
2022-10-30T14:13:55.315Z,4.20
2022-10-30T14:16:40.381Z,4.30
2022-10-30T14:19:09.372Z,5.30
2022-10-30T14:21:43.020Z,4.37
2022-10-30T14:24:17.121Z,4.57
2022-10-30T14:26:52.918Z,4.20
2022-10-30T14:29:41.004Z,4.87
2022-10-30T14:32:43.231Z,4.17
2022-10-30T14:35:37.522Z,4.17
2022-10-30T14:38:27.860Z,4.30
2022-10-30T14:41:20.934Z,3.50
2022-10-30T14:44:07.756Z,3.53
2022-10-30T14:46:44.528Z,3.60
2022-10-30T14:49:30.192Z,4.33
2022-10-30T14:52:09.269Z,3.80
2022-10-30T14:54:40.426Z,4.10
2022-10-30T14:57:21.531Z,5.17
2022-10-30T14:59:49.875Z,4.93
2022-10-30T15:02:28.297Z,4.83
2022-10-30T15:05:20.189Z,4.87
2022-10-30T15:07:53.607Z,4.90
2022-10-30T15:10:27.080Z,5.83
2022-10-30T15:13:05.508Z,5.27
2022-10-30T15:15:34.100Z,6.20
2022-10-30T15:18:06.055Z,4.90
2022-10-30T15:20:35.235Z,3.83
2022-10-30T15:23:05.398Z,4.40
2022-10-30T15:25:36.088Z,4.00
2022-10-30T15:28:05.238Z,3.70
2022-10-30T15:30:33.424Z,4.17
2022-10-30T15:33:02.323Z,3.90
2022-10-30T15:35:32.496Z,4.23
2022-10-30T15:38:02.447Z,4.37
2022-10-30T15:40:31.256Z,4.53
2022-10-30T15:43:01.063Z,5.40
2022-10-30T15:45:33.865Z,7.93
2022-10-30T15:48:06.578Z,8.47
2022-10-30T15:50:36.836Z,8.00
2022-10-30T15:53:05.418Z,7.60
2022-10-30T15:55:36.177Z,7.40
2022-10-30T15:58:05.846Z,6.43
2022-10-30T16:00:36.408Z,5.90
2022-10-30T16:03:06.732Z,6.20
2022-10-30T16:05:36.583Z,5.70
2022-10-30T16:08:05.957Z,5.30
2022-10-30T16:10:35.676Z,4.73
2022-10-30T16:13:04.531Z,4.80
2022-10-30T16:15:34.810Z,5.00
2022-10-30T16:18:07.100Z,4.10
2022-10-30T16:20:37.493Z,4.80
2022-10-30T16:23:05.918Z,4.73
2022-10-30T16:25:37.452Z,4.47
2022-10-30T16:28:05.970Z,4.33
2022-10-30T16:30:35.302Z,4.00
2022-10-30T16:33:05.134Z,4.57
2022-10-30T16:35:33.398Z,5.00
2022-10-30T16:38:04.375Z,4.17
2022-10-30T16:40:32.765Z,4.77
2022-10-30T16:43:03.422Z,4.40
2022-10-30T16:45:48.201Z,4.70
2022-10-30T16:48:20.912Z,5.03
2022-10-30T16:50:49.310Z,6.30
2022-10-30T16:53:21.560Z,6.17
2022-10-30T16:55:49.723Z,7.47
2022-10-30T16:58:18.445Z,6.03
2022-10-30T17:00:51.043Z,5.53
2022-10-30T17:03:23.055Z,5.40
2022-10-30T17:05:59.072Z,4.60
2022-10-30T17:08:34.644Z,4.70
2022-10-30T17:11:03.981Z,5.13
2022-10-30T17:13:35.443Z,4.87
2022-10-30T17:16:25.208Z,5.33
2022-10-30T17:18:55.323Z,5.50
2022-10-30T17:21:25.907Z,4.77
2022-10-30T17:23:57.398Z,4.83
2022-10-30T17:26:25.433Z,5.30
2022-10-30T17:28:53.664Z,4.50
2022-10-30T17:31:24.291Z,5.30
2022-10-30T17:34:16.844Z,5.83
2022-10-30T17:36:45.686Z,6.27
2022-10-30T17:39:15.714Z,6.17
2022-10-30T17:41:44.578Z,6.07
2022-10-30T17:44:19.322Z,6.57
2022-10-30T17:46:47.468Z,6.53
2022-10-30T17:49:23.700Z,7.10
2022-10-30T17:51:51.937Z,9.20
2022-10-30T17:54:21.588Z,8.60
2022-10-30T17:56:49.865Z,8.07
2022-10-30T17:59:18.436Z,7.77
2022-10-30T18:01:49.104Z,7.30
2022-10-30T18:04:20.585Z,7.30
2022-10-30T18:06:49.622Z,7.67
2022-10-30T18:09:17.813Z,7.93
2022-10-30T18:11:47.432Z,7.30
2022-10-30T18:14:15.657Z,7.03
2022-10-30T18:16:44.272Z,7.10
2022-10-30T18:19:12.774Z,6.90
2022-10-30T18:21:41.055Z,7.80
2022-10-30T18:24:12.154Z,6.57
2022-10-30T18:26:41.069Z,6.23
2022-10-30T18:29:11.050Z,5.83
2022-10-30T18:31:39.745Z,5.50
2022-10-30T18:34:13.464Z,5.77
2022-10-30T18:36:41.944Z,6.67
2022-10-30T18:39:13.224Z,5.67
2022-10-30T18:41:43.985Z,6.40
2022-10-30T18:44:16.527Z,5.57
2022-10-30T18:46:46.022Z,5.47
2022-10-30T18:49:15.066Z,6.13
2022-10-30T18:51:44.098Z,5.87
2022-10-30T18:54:16.243Z,6.17
2022-10-30T18:56:45.719Z,6.03
2022-10-30T18:59:16.277Z,6.17
2022-10-30T19:01:45.321Z,5.77
2022-10-30T19:04:21.664Z,5.93
2022-10-30T19:06:51.342Z,6.80
2022-10-30T19:09:20.120Z,6.00
2022-10-30T19:11:48.515Z,6.37
2022-10-30T19:14:18.839Z,6.40
2022-10-30T19:16:47.322Z,5.97
2022-10-30T19:19:18.192Z,6.93
2022-10-30T19:21:46.911Z,6.33
2022-10-30T19:24:17.812Z,6.73
2022-10-30T19:26:46.885Z,6.03
2022-10-30T19:29:15.904Z,6.60
2022-10-30T19:31:46.287Z,6.23
2022-10-30T19:34:14.716Z,6.70
2022-10-30T19:36:44.519Z,6.30
2022-10-30T19:39:14.705Z,6.47
2022-10-30T19:41:43.600Z,6.37
2022-10-30T19:44:14.047Z,6.70
2022-10-30T19:46:42.271Z,6.90
2022-10-30T19:49:18.012Z,6.30
2022-10-30T19:51:47.442Z,6.47
2022-10-30T19:54:16.171Z,6.80
2022-10-30T19:56:47.241Z,6.73
2022-10-30T19:59:17.120Z,6.70
2022-10-30T20:01:46.850Z,7.60
2022-10-30T20:04:17.199Z,7.07
2022-10-30T20:06:47.102Z,6.90
2022-10-30T20:09:16.495Z,6.97
2022-10-30T20:11:46.291Z,6.83
2022-10-30T20:14:15.128Z,6.80
2022-10-30T20:16:43.826Z,7.27
2022-10-30T20:19:28.415Z,8.20
2022-10-30T20:21:57.407Z,8.43
2022-10-30T20:24:26.379Z,8.27
2022-10-30T20:26:57.394Z,6.70
2022-10-30T20:29:26.850Z,9.30
2022-10-30T20:31:56.279Z,8.53
2022-10-30T20:34:28.885Z,9.20
2022-10-30T20:36:57.340Z,9.43
2022-10-30T20:39:25.502Z,9.03
2022-10-30T20:41:55.346Z,9.17
2022-10-30T20:44:25.936Z,9.30
2022-10-30T20:46:59.469Z,10.23
2022-10-30T20:49:29.946Z,9.63
2022-10-30T20:52:04.047Z,10.00
2022-10-30T20:54:32.429Z,11.30
2022-10-30T20:57:01.579Z,9.80
2022-10-30T20:59:32.482Z,11.00
2022-10-30T21:02:03.592Z,10.00
2022-10-30T21:04:36.349Z,10.47
2022-10-30T21:07:05.014Z,10.47
2022-10-30T21:09:33.921Z,10.67
2022-10-30T21:12:02.560Z,10.10
2022-10-30T21:14:31.896Z,10.43
2022-10-30T21:17:00.466Z,10.03
2022-10-30T21:19:30.840Z,9.97
2022-10-30T21:22:03.161Z,10.57
2022-10-30T21:24:32.011Z,11.43
2022-10-30T21:27:01.891Z,11.20
2022-10-30T21:29:34.222Z,12.17
2022-10-30T21:32:04.544Z,12.33
2022-10-30T21:34:34.858Z,12.27
2022-10-30T21:37:06.932Z,12.00
2022-10-30T21:39:35.729Z,11.63
2022-10-30T21:42:04.167Z,12.50
2022-10-30T21:44:34.433Z,12.07
2022-10-30T21:47:03.256Z,13.17
2022-10-30T21:49:32.016Z,13.00
2022-10-30T21:52:03.563Z,12.20
2022-10-30T21:54:34.514Z,11.57
2022-10-30T21:57:03.357Z,10.70
2022-10-30T21:59:32.595Z,11.00
2022-10-30T22:02:03.319Z,11.50
2022-10-30T22:04:33.192Z,10.80
2022-10-30T22:07:02.062Z,11.13
2022-10-30T22:09:30.959Z,10.70
2022-10-30T22:12:01.006Z,10.17
2022-10-30T22:14:29.612Z,10.90
2022-10-30T22:16:57.857Z,11.43
2022-10-30T22:19:26.349Z,11.40
2022-10-30T22:21:55.108Z,11.13
2022-10-30T22:24:25.615Z,10.47
2022-10-30T22:26:55.031Z,10.40
2022-10-30T22:29:24.943Z,11.47
2022-10-30T22:31:53.761Z,10.87
2022-10-30T22:34:22.227Z,11.40
2022-10-30T22:36:51.023Z,10.47
2022-10-30T22:39:20.292Z,10.43
2022-10-30T22:41:49.152Z,10.33
2022-10-30T22:44:19.347Z,10.23
2022-10-30T22:46:49.679Z,10.63
2022-10-30T22:49:18.609Z,9.53
2022-10-30T22:51:47.182Z,9.57
2022-10-30T22:54:15.753Z,9.87
2022-10-30T22:56:45.468Z,9.40
2022-10-30T23:02:14.210Z,9.17
2022-10-30T23:04:51.257Z,9.10
2022-10-30T23:07:22.464Z,9.10
2022-10-30T23:09:54.799Z,9.23
2022-10-30T23:12:34.680Z,8.47
2022-10-30T23:15:10.300Z,9.53
2022-10-30T23:17:44.998Z,8.53
2022-10-30T23:20:24.081Z,8.23
2022-10-30T23:22:57.724Z,9.00
2022-10-30T23:25:30.800Z,8.50
2022-10-30T23:28:02.690Z,8.23
2022-10-30T23:30:33.829Z,8.37
2022-10-30T23:33:03.748Z,8.60
2022-10-30T23:35:31.893Z,8.83
2022-10-30T23:37:59.962Z,9.10
2022-10-30T23:40:28.067Z,9.17
2022-10-30T23:42:56.665Z,7.93
2022-10-30T23:45:25.050Z,8.47
2022-10-30T23:48:07.250Z,9.00
2022-10-30T23:50:36.214Z,8.37
2022-10-30T23:53:04.859Z,7.70
2022-10-30T23:55:33.127Z,7.83
2022-10-30T23:58:01.665Z,7.20
